sensor_id;sensor_type;location;lat;lon;timestamp;pressure;altitude;pressure_sealevel;temperature;humidity
20620;BME280;10469;42.720;23.252;2022-08-19T00:00:08;94616.00;;;22.05;100.00
20620;BME280;10469;42.720;23.252;2022-08-19T00:02:35;94610.06;;;22.03;100.00
20620;BME280;10469;42.720;23.252;2022-08-19T00:05:03;94614.31;;;22.18;100.00
20620;BME280;10469;42.720;23.252;2022-08-19T00:07:32;94608.06;;;22.18;100.00
20620;BME280;10469;42.720;23.252;2022-08-19T00:09:58;94617.88;;;22.27;100.00
20620;BME280;10469;42.720;23.252;2022-08-19T00:12:23;94615.47;;;22.26;100.00
20620;BME280;10469;42.720;23.252;2022-08-19T00:14:49;94619.78;;;22.18;100.00
20620;BME280;10469;42.720;23.252;2022-08-19T00:17:14;94625.38;;;22.13;100.00
20620;BME280;10469;42.720;23.252;2022-08-19T00:19:40;94628.84;;;22.05;100.00
20620;BME280;10469;42.720;23.252;2022-08-19T00:22:06;94630.25;;;21.94;100.00
20620;BME280;10469;42.720;23.252;2022-08-19T00:24:34;94630.28;;;21.71;100.00
20620;BME280;10469;42.720;23.252;2022-08-19T00:27:00;94635.97;;;21.84;100.00
20620;BME280;10469;42.720;23.252;2022-08-19T00:29:27;94632.84;;;21.68;100.00
20620;BME280;10469;42.720;23.252;2022-08-19T00:31:53;94631.16;;;21.81;100.00
20620;BME280;10469;42.720;23.252;2022-08-19T00:34:22;94625.47;;;21.68;100.00
20620;BME280;10469;42.720;23.252;2022-08-19T00:36:48;94625.38;;;21.82;100.00
20620;BME280;10469;42.720;23.252;2022-08-19T00:39:15;94615.38;;;21.69;100.00
20620;BME280;10469;42.720;23.252;2022-08-19T00:41:43;94619.31;;;21.63;100.00
20620;BME280;10469;42.720;23.252;2022-08-19T00:44:14;94613.72;;;21.59;100.00
20620;BME280;10469;42.720;23.252;2022-08-19T00:46:42;94612.22;;;21.53;100.00
20620;BME280;10469;42.720;23.252;2022-08-19T00:49:23;94619.31;;;21.63;100.00
20620;BME280;10469;42.720;23.252;2022-08-19T00:52:02;94614.59;;;21.77;100.00
20620;BME280;10469;42.720;23.252;2022-08-19T00:54:29;94619.25;;;21.76;100.00
20620;BME280;10469;42.720;23.252;2022-08-19T00:56:57;94608.59;;;21.66;100.00
20620;BME280;10469;42.720;23.252;2022-08-19T00:59:23;94602.28;;;21.57;100.00
20620;BME280;10469;42.720;23.252;2022-08-19T01:01:49;94618.72;;;21.66;100.00
20620;BME280;10469;42.720;23.252;2022-08-19T01:04:15;94620.78;;;21.60;100.00
20620;BME280;10469;42.720;23.252;2022-08-19T01:06:40;94616.25;;;21.56;100.00
20620;BME280;10469;42.720;23.252;2022-08-19T01:09:07;94616.84;;;21.30;100.00
20620;BME280;10469;42.720;23.252;2022-08-19T01:11:35;94623.03;;;21.22;100.00
20620;BME280;10469;42.720;23.252;2022-08-19T01:14:01;94622.13;;;21.26;100.00
20620;BME280;10469;42.720;23.252;2022-08-19T01:16:29;94621.94;;;21.23;100.00
20620;BME280;10469;42.720;23.252;2022-08-19T01:18:56;94616.19;;;21.24;100.00
20620;BME280;10469;42.720;23.252;2022-08-19T01:21:48;94617.72;;;21.17;100.00
20620;BME280;10469;42.720;23.252;2022-08-19T01:24:15;94616.53;;;21.09;100.00
20620;BME280;10469;42.720;23.252;2022-08-19T01:26:43;94612.88;;;21.14;100.00
20620;BME280;10469;42.720;23.252;2022-08-19T01:29:10;94605.63;;;21.09;100.00
20620;BME280;10469;42.720;23.252;2022-08-19T01:31:36;94611.56;;;21.11;100.00
20620;BME280;10469;42.720;23.252;2022-08-19T01:34:03;94605.09;;;20.98;100.00
20620;BME280;10469;42.720;23.252;2022-08-19T01:36:32;94617.41;;;20.96;100.00
20620;BME280;10469;42.720;23.252;2022-08-19T01:39:03;94612.28;;;20.80;100.00
20620;BME280;10469;42.720;23.252;2022-08-19T01:41:29;94619.56;;;20.71;100.00
20620;BME280;10469;42.720;23.252;2022-08-19T01:43:54;94615.84;;;20.67;100.00
20620;BME280;10469;42.720;23.252;2022-08-19T01:46:21;94623.03;;;20.63;100.00
20620;BME280;10469;42.720;23.252;2022-08-19T01:48:47;94623.09;;;20.72;100.00
20620;BME280;10469;42.720;23.252;2022-08-19T01:51:13;94631.47;;;20.75;100.00
20620;BME280;10469;42.720;23.252;2022-08-19T01:53:40;94624.75;;;20.73;100.00
20620;BME280;10469;42.720;23.252;2022-08-19T01:56:06;94624.13;;;20.62;100.00
20620;BME280;10469;42.720;23.252;2022-08-19T01:58:36;94614.47;;;20.56;100.00
20620;BME280;10469;42.720;23.252;2022-08-19T02:01:04;94629.78;;;20.66;100.00
20620;BME280;10469;42.720;23.252;2022-08-19T02:03:30;94628.91;;;20.43;100.00
20620;BME280;10469;42.720;23.252;2022-08-19T02:06:00;94634.94;;;20.40;100.00
20620;BME280;10469;42.720;23.252;2022-08-19T02:08:28;94619.09;;;20.42;100.00
20620;BME280;10469;42.720;23.252;2022-08-19T02:10:54;94627.25;;;20.42;100.00
20620;BME280;10469;42.720;23.252;2022-08-19T02:13:20;94632.63;;;20.47;100.00
20620;BME280;10469;42.720;23.252;2022-08-19T02:15:45;94620.81;;;20.38;100.00
20620;BME280;10469;42.720;23.252;2022-08-19T02:18:11;94611.25;;;20.26;100.00
20620;BME280;10469;42.720;23.252;2022-08-19T02:20:39;94613.16;;;20.26;100.00
20620;BME280;10469;42.720;23.252;2022-08-19T02:23:06;94620.09;;;20.46;100.00
20620;BME280;10469;42.720;23.252;2022-08-19T02:25:31;94625.66;;;20.54;100.00
20620;BME280;10469;42.720;23.252;2022-08-19T02:27:57;94617.09;;;20.34;100.00
20620;BME280;10469;42.720;23.252;2022-08-19T02:30:23;94618.50;;;20.45;100.00
20620;BME280;10469;42.720;23.252;2022-08-19T02:32:49;94623.84;;;20.50;100.00
20620;BME280;10469;42.720;23.252;2022-08-19T02:35:15;94625.38;;;20.56;100.00
20620;BME280;10469;42.720;23.252;2022-08-19T02:37:41;94622.44;;;20.39;100.00
20620;BME280;10469;42.720;23.252;2022-08-19T02:40:26;94625.28;;;20.34;100.00
20620;BME280;10469;42.720;23.252;2022-08-19T02:42:52;94628.09;;;20.01;100.00
20620;BME280;10469;42.720;23.252;2022-08-19T02:45:17;94623.81;;;19.81;100.00
20620;BME280;10469;42.720;23.252;2022-08-19T02:47:43;94627.50;;;19.58;100.00
20620;BME280;10469;42.720;23.252;2022-08-19T02:50:08;94638.53;;;19.66;100.00
20620;BME280;10469;42.720;23.252;2022-08-19T02:52:34;94633.03;;;19.52;100.00
20620;BME280;10469;42.720;23.252;2022-08-19T02:55:00;94636.97;;;19.60;100.00
20620;BME280;10469;42.720;23.252;2022-08-19T02:57:26;94643.00;;;19.57;100.00
20620;BME280;10469;42.720;23.252;2022-08-19T02:59:52;94642.50;;;19.55;100.00
20620;BME280;10469;42.720;23.252;2022-08-19T03:02:18;94638.16;;;19.54;100.00
20620;BME280;10469;42.720;23.252;2022-08-19T03:04:44;94630.78;;;19.41;100.00
20620;BME280;10469;42.720;23.252;2022-08-19T03:07:13;94639.38;;;19.48;100.00
20620;BME280;10469;42.720;23.252;2022-08-19T03:09:39;94637.84;;;19.55;100.00
20620;BME280;10469;42.720;23.252;2022-08-19T03:12:05;94625.81;;;19.62;100.00
20620;BME280;10469;42.720;23.252;2022-08-19T03:14:32;94624.94;;;19.66;100.00
20620;BME280;10469;42.720;23.252;2022-08-19T03:16:58;94630.59;;;19.70;100.00
20620;BME280;10469;42.720;23.252;2022-08-19T03:19:23;94629.91;;;19.59;100.00
20620;BME280;10469;42.720;23.252;2022-08-19T03:21:50;94635.66;;;19.58;100.00
20620;BME280;10469;42.720;23.252;2022-08-19T03:24:16;94636.34;;;19.49;100.00
20620;BME280;10469;42.720;23.252;2022-08-19T03:26:48;94636.16;;;19.60;100.00
20620;BME280;10469;42.720;23.252;2022-08-19T03:29:15;94646.09;;;19.69;100.00
20620;BME280;10469;42.720;23.252;2022-08-19T03:31:42;94639.81;;;19.69;100.00
20620;BME280;10469;42.720;23.252;2022-08-19T03:34:10;94633.41;;;19.65;100.00
20620;BME280;10469;42.720;23.252;2022-08-19T03:36:37;94635.00;;;19.47;100.00
20620;BME280;10469;42.720;23.252;2022-08-19T03:39:03;94644.13;;;19.56;100.00
20620;BME280;10469;42.720;23.252;2022-08-19T03:41:32;94645.25;;;19.69;100.00
20620;BME280;10469;42.720;23.252;2022-08-19T03:43:58;94646.69;;;19.66;100.00
20620;BME280;10469;42.720;23.252;2022-08-19T03:46:27;94657.81;;;19.84;100.00
20620;BME280;10469;42.720;23.252;2022-08-19T03:48:54;94659.75;;;19.64;100.00
20620;BME280;10469;42.720;23.252;2022-08-19T03:51:32;94665.81;;;19.61;100.00
20620;BME280;10469;42.720;23.252;2022-08-19T03:54:00;94655.50;;;19.58;100.00
20620;BME280;10469;42.720;23.252;2022-08-19T03:56:27;94655.50;;;19.58;100.00
20620;BME280;10469;42.720;23.252;2022-08-19T03:58:54;94660.78;;;19.68;100.00
20620;BME280;10469;42.720;23.252;2022-08-19T04:01:22;94651.13;;;19.62;100.00
20620;BME280;10469;42.720;23.252;2022-08-19T04:03:48;94670.69;;;19.78;100.00
20620;BME280;10469;42.720;23.252;2022-08-19T04:06:20;94669.50;;;19.84;100.00
20620;BME280;10469;42.720;23.252;2022-08-19T04:08:48;94664.84;;;19.85;100.00
20620;BME280;10469;42.720;23.252;2022-08-19T04:11:17;94669.72;;;20.01;100.00
20620;BME280;10469;42.720;23.252;2022-08-19T04:13:42;94669.22;;;20.13;100.00
20620;BME280;10469;42.720;23.252;2022-08-19T04:16:09;94667.72;;;20.21;100.00
20620;BME280;10469;42.720;23.252;2022-08-19T04:18:37;94675.97;;;20.02;100.00
20620;BME280;10469;42.720;23.252;2022-08-19T04:21:03;94672.75;;;20.00;100.00
20620;BME280;10469;42.720;23.252;2022-08-19T04:23:29;94661.16;;;20.08;100.00
20620;BME280;10469;42.720;23.252;2022-08-19T04:25:55;94671.16;;;20.13;100.00
20620;BME280;10469;42.720;23.252;2022-08-19T04:28:21;94674.09;;;20.30;100.00
20620;BME280;10469;42.720;23.252;2022-08-19T04:30:50;94674.56;;;20.32;100.00
20620;BME280;10469;42.720;23.252;2022-08-19T04:33:18;94676.91;;;20.39;100.00
20620;BME280;10469;42.720;23.252;2022-08-19T04:35:46;94684.97;;;20.44;100.00
20620;BME280;10469;42.720;23.252;2022-08-19T04:38:14;94689.75;;;20.52;100.00
20620;BME280;10469;42.720;23.252;2022-08-19T04:40:47;94683.97;;;20.53;100.00
20620;BME280;10469;42.720;23.252;2022-08-19T04:43:35;94688.03;;;20.56;100.00
20620;BME280;10469;42.720;23.252;2022-08-19T04:46:09;94672.75;;;20.55;100.00
20620;BME280;10469;42.720;23.252;2022-08-19T04:48:35;94668.75;;;20.52;100.00
20620;BME280;10469;42.720;23.252;2022-08-19T04:51:06;94682.88;;;20.68;100.00
20620;BME280;10469;42.720;23.252;2022-08-19T04:53:34;94681.41;;;20.85;100.00
20620;BME280;10469;42.720;23.252;2022-08-19T04:56:07;94670.50;;;20.85;100.00
20620;BME280;10469;42.720;23.252;2022-08-19T04:58:33;94682.09;;;21.04;100.00
20620;BME280;10469;42.720;23.252;2022-08-19T05:00:59;94683.97;;;21.17;100.00
20620;BME280;10469;42.720;23.252;2022-08-19T05:03:27;94672.38;;;21.12;100.00
20620;BME280;10469;42.720;23.252;2022-08-19T05:05:59;94682.09;;;21.40;100.00
20620;BME280;10469;42.720;23.252;2022-08-19T05:08:28;94686.59;;;21.67;100.00
20620;BME280;10469;42.720;23.252;2022-08-19T05:10:55;94683.88;;;21.45;100.00
20620;BME280;10469;42.720;23.252;2022-08-19T05:13:22;94692.63;;;21.78;100.00
20620;BME280;10469;42.720;23.252;2022-08-19T05:15:56;94693.06;;;21.94;100.00
20620;BME280;10469;42.720;23.252;2022-08-19T05:18:22;94684.59;;;22.04;100.00
20620;BME280;10469;42.720;23.252;2022-08-19T05:21:12;94690.22;;;22.08;100.00
20620;BME280;10469;42.720;23.252;2022-08-19T05:23:57;94694.09;;;22.38;100.00
20620;BME280;10469;42.720;23.252;2022-08-19T05:26:23;94690.13;;;22.52;100.00
20620;BME280;10469;42.720;23.252;2022-08-19T05:28:52;94681.47;;;22.59;100.00
20620;BME280;10469;42.720;23.252;2022-08-19T05:31:17;94687.19;;;22.89;100.00
20620;BME280;10469;42.720;23.252;2022-08-19T05:33:43;94686.31;;;22.79;100.00
20620;BME280;10469;42.720;23.252;2022-08-19T05:36:09;94695.44;;;23.06;100.00
20620;BME280;10469;42.720;23.252;2022-08-19T05:38:35;94693.84;;;23.74;100.00
20620;BME280;10469;42.720;23.252;2022-08-19T05:41:10;94686.13;;;23.59;100.00
20620;BME280;10469;42.720;23.252;2022-08-19T05:43:36;94687.50;;;24.00;100.00
20620;BME280;10469;42.720;23.252;2022-08-19T05:46:06;94679.53;;;24.71;100.00
20620;BME280;10469;42.720;23.252;2022-08-19T05:48:35;94684.47;;;25.37;100.00
20620;BME280;10469;42.720;23.252;2022-08-19T05:51:05;94681.59;;;25.04;100.00
20620;BME280;10469;42.720;23.252;2022-08-19T05:53:32;94681.25;;;25.77;100.00
20620;BME280;10469;42.720;23.252;2022-08-19T05:56:07;94681.00;;;26.61;97.66
20620;BME280;10469;42.720;23.252;2022-08-19T05:58:34;94686.16;;;26.99;96.22
20620;BME280;10469;42.720;23.252;2022-08-19T06:01:00;94686.59;;;27.38;89.97
20620;BME280;10469;42.720;23.252;2022-08-19T06:03:33;94689.66;;;27.36;86.40
20620;BME280;10469;42.720;23.252;2022-08-19T06:05:59;94692.38;;;27.73;84.36
20620;BME280;10469;42.720;23.252;2022-08-19T06:08:28;94693.72;;;27.67;82.97
20620;BME280;10469;42.720;23.252;2022-08-19T06:10:54;94694.06;;;27.78;81.11
20620;BME280;10469;42.720;23.252;2022-08-19T06:13:21;94696.56;;;27.83;83.71
20620;BME280;10469;42.720;23.252;2022-08-19T06:15:49;94684.34;;;28.87;78.28
20620;BME280;10469;42.720;23.252;2022-08-19T06:18:15;94691.06;;;28.26;77.17
20620;BME280;10469;42.720;23.252;2022-08-19T06:20:41;94694.19;;;28.25;77.67
20620;BME280;10469;42.720;23.252;2022-08-19T06:23:07;94697.75;;;27.97;79.04
20620;BME280;10469;42.720;23.252;2022-08-19T06:25:33;94690.25;;;28.54;76.75
20620;BME280;10469;42.720;23.252;2022-08-19T06:27:58;94688.41;;;29.25;72.11
20620;BME280;10469;42.720;23.252;2022-08-19T06:30:24;94698.16;;;28.71;72.58
20620;BME280;10469;42.720;23.252;2022-08-19T06:32:50;94695.50;;;28.59;73.36
20620;BME280;10469;42.720;23.252;2022-08-19T06:35:15;94694.84;;;28.66;73.72
20620;BME280;10469;42.720;23.252;2022-08-19T06:37:41;94686.88;;;30.21;66.96
20620;BME280;10469;42.720;23.252;2022-08-19T06:40:08;94684.44;;;30.16;67.29
20620;BME280;10469;42.720;23.252;2022-08-19T06:42:35;94688.25;;;29.92;66.96
20620;BME280;10469;42.720;23.252;2022-08-19T06:45:04;94687.97;;;30.59;64.11
20620;BME280;10469;42.720;23.252;2022-08-19T06:47:30;94686.41;;;31.87;60.12
20620;BME280;10469;42.720;23.252;2022-08-19T06:49:58;94693.00;;;32.12;56.91
20620;BME280;10469;42.720;23.252;2022-08-19T06:52:34;94692.72;;;31.57;56.26
20620;BME280;10469;42.720;23.252;2022-08-19T06:55:00;94682.84;;;30.61;61.33
20620;BME280;10469;42.720;23.252;2022-08-19T06:57:26;94684.69;;;32.09;56.82
20620;BME280;10469;42.720;23.252;2022-08-19T06:59:52;94693.06;;;32.50;54.11
20620;BME280;10469;42.720;23.252;2022-08-19T07:02:18;94683.34;;;31.99;56.42
20620;BME280;10469;42.720;23.252;2022-08-19T07:04:45;94686.81;;;31.89;55.51
20620;BME280;10469;42.720;23.252;2022-08-19T07:07:12;94688.84;;;31.92;56.18
20620;BME280;10469;42.720;23.252;2022-08-19T07:09:41;94688.59;;;32.08;55.99
20620;BME280;10469;42.720;23.252;2022-08-19T07:12:09;94696.25;;;32.92;52.82
20620;BME280;10469;42.720;23.252;2022-08-19T07:14:36;94697.28;;;31.19;56.55
20620;BME280;10469;42.720;23.252;2022-08-19T07:17:08;94683.22;;;32.59;54.45
20620;BME280;10469;42.720;23.252;2022-08-19T07:19:34;94685.97;;;31.85;55.12
20620;BME280;10469;42.720;23.252;2022-08-19T07:22:02;94700.41;;;33.16;51.37
20620;BME280;10469;42.720;23.252;2022-08-19T07:24:29;94679.38;;;33.81;50.90
20620;BME280;10469;42.720;23.252;2022-08-19T07:26:56;94684.09;;;33.11;50.42
20620;BME280;10469;42.720;23.252;2022-08-19T07:29:26;94677.63;;;34.46;47.14
20620;BME280;10469;42.720;23.252;2022-08-19T07:31:53;94690.41;;;35.65;43.89
20620;BME280;10469;42.720;23.252;2022-08-19T07:34:22;94692.81;;;34.77;45.50
20620;BME280;10469;42.720;23.252;2022-08-19T07:36:49;94680.09;;;35.33;44.22
20620;BME280;10469;42.720;23.252;2022-08-19T07:39:20;94676.59;;;33.81;46.67
20620;BME280;10469;42.720;23.252;2022-08-19T07:41:47;94679.91;;;34.08;47.07
20620;BME280;10469;42.720;23.252;2022-08-19T07:44:13;94689.09;;;33.43;49.04
20620;BME280;10469;42.720;23.252;2022-08-19T07:46:43;94686.72;;;33.45;48.50
20620;BME280;10469;42.720;23.252;2022-08-19T07:49:10;94683.53;;;34.23;46.84
20620;BME280;10469;42.720;23.252;2022-08-19T07:51:42;94691.56;;;33.00;49.36
20620;BME280;10469;42.720;23.252;2022-08-19T07:54:07;94685.25;;;35.35;45.76
20620;BME280;10469;42.720;23.252;2022-08-19T07:56:32;94678.06;;;37.16;41.05
20620;BME280;10469;42.720;23.252;2022-08-19T07:58:58;94671.72;;;40.93;33.26
20620;BME280;10469;42.720;23.252;2022-08-19T08:01:25;94676.13;;;37.96;35.88
20620;BME280;10469;42.720;23.252;2022-08-19T08:03:53;94683.59;;;34.44;41.93
20620;BME280;10469;42.720;23.252;2022-08-19T08:06:38;94686.34;;;34.41;43.85
20620;BME280;10469;42.720;23.252;2022-08-19T08:09:28;94676.13;;;34.81;42.45
20620;BME280;10469;42.720;23.252;2022-08-19T08:11:55;94680.66;;;36.89;39.72
20620;BME280;10469;42.720;23.252;2022-08-19T08:14:42;94671.78;;;36.39;41.04
20620;BME280;10469;42.720;23.252;2022-08-19T08:17:14;94667.91;;;36.88;38.34
20620;BME280;10469;42.720;23.252;2022-08-19T08:19:40;94652.19;;;39.50;34.33
20620;BME280;10469;42.720;23.252;2022-08-19T08:22:06;94667.34;;;37.08;36.56
20620;BME280;10469;42.720;23.252;2022-08-19T08:24:32;94663.66;;;37.63;36.59
20620;BME280;10469;42.720;23.252;2022-08-19T08:26:59;94663.44;;;36.98;37.33
20620;BME280;10469;42.720;23.252;2022-08-19T08:29:29;94653.81;;;35.31;39.84
20620;BME280;10469;42.720;23.252;2022-08-19T08:31:56;94658.47;;;36.68;37.88
20620;BME280;10469;42.720;23.252;2022-08-19T08:34:21;94658.66;;;36.99;37.45
20620;BME280;10469;42.720;23.252;2022-08-19T08:36:47;94656.41;;;37.28;36.42
20620;BME280;10469;42.720;23.252;2022-08-19T08:39:16;94644.00;;;36.84;35.97
20620;BME280;10469;42.720;23.252;2022-08-19T08:42:08;94663.16;;;36.15;37.44
20620;BME280;10469;42.720;23.252;2022-08-19T08:44:41;94648.41;;;36.15;38.14
20620;BME280;10469;42.720;23.252;2022-08-19T08:47:17;94651.09;;;36.33;38.12
20620;BME280;10469;42.720;23.252;2022-08-19T08:49:52;94650.91;;;38.27;35.50
20620;BME280;10469;42.720;23.252;2022-08-19T08:52:25;94639.59;;;36.24;36.58
20620;BME280;10469;42.720;23.252;2022-08-19T08:54:52;94638.25;;;38.73;34.06
20620;BME280;10469;42.720;23.252;2022-08-19T08:57:26;94638.16;;;37.12;35.35
20620;BME280;10469;42.720;23.252;2022-08-19T08:59:54;94633.34;;;36.64;35.67
20620;BME280;10469;42.720;23.252;2022-08-19T09:02:22;94632.72;;;36.91;34.56
20620;BME280;10469;42.720;23.252;2022-08-19T09:04:47;94640.66;;;36.48;34.38
20620;BME280;10469;42.720;23.252;2022-08-19T09:15:42;94615.88;;;36.53;32.95
20620;BME280;10469;42.720;23.252;2022-08-19T09:18:10;94624.31;;;36.39;32.89
20620;BME280;10469;42.720;23.252;2022-08-19T09:20:35;94621.38;;;37.57;32.53
20620;BME280;10469;42.720;23.252;2022-08-19T09:23:01;94615.22;;;37.32;31.70
20620;BME280;10469;42.720;23.252;2022-08-19T09:25:26;94606.94;;;38.24;30.32
20620;BME280;10469;42.720;23.252;2022-08-19T09:27:52;94611.56;;;38.92;28.41
20620;BME280;10469;42.720;23.252;2022-08-19T09:30:28;94616.22;;;38.17;29.08
20620;BME280;10469;42.720;23.252;2022-08-19T09:32:54;94604.59;;;37.92;29.99
20620;BME280;10469;42.720;23.252;2022-08-19T09:35:27;94615.03;;;37.08;30.77
20620;BME280;10469;42.720;23.252;2022-08-19T09:37:54;94605.81;;;38.99;28.42
20620;BME280;10469;42.720;23.252;2022-08-19T09:40:20;94600.31;;;38.41;28.84
20620;BME280;10469;42.720;23.252;2022-08-19T09:42:46;94599.41;;;37.90;29.07
20620;BME280;10469;42.720;23.252;2022-08-19T09:45:15;94602.22;;;37.52;29.04
20620;BME280;10469;42.720;23.252;2022-08-19T09:47:42;94590.69;;;39.39;27.10
20620;BME280;10469;42.720;23.252;2022-08-19T09:50:10;94603.19;;;41.65;24.27
20620;BME280;10469;42.720;23.252;2022-08-19T09:52:36;94590.56;;;41.57;23.72
20620;BME280;10469;42.720;23.252;2022-08-19T09:55:07;94589.94;;;41.20;24.55
20620;BME280;10469;42.720;23.252;2022-08-19T09:57:33;94594.50;;;42.30;23.04
20620;BME280;10469;42.720;23.252;2022-08-19T09:59:59;94597.03;;;41.99;23.06
20620;BME280;10469;42.720;23.252;2022-08-19T10:02:24;94573.41;;;43.12;22.17
20620;BME280;10469;42.720;23.252;2022-08-19T10:04:51;94578.22;;;41.38;24.22
20620;BME280;10469;42.720;23.252;2022-08-19T10:07:35;94579.81;;;38.48;25.79
20620;BME280;10469;42.720;23.252;2022-08-19T10:10:05;94560.00;;;39.52;24.55
20620;BME280;10469;42.720;23.252;2022-08-19T10:12:34;94569.25;;;42.78;22.30
20620;BME280;10469;42.720;23.252;2022-08-19T10:15:00;94564.00;;;41.58;22.50
20620;BME280;10469;42.720;23.252;2022-08-19T10:17:27;94574.47;;;40.63;23.15
20620;BME280;10469;42.720;23.252;2022-08-19T10:19:52;94565.03;;;39.81;23.86
20620;BME280;10469;42.720;23.252;2022-08-19T10:22:18;94572.38;;;41.45;23.21
20620;BME280;10469;42.720;23.252;2022-08-19T10:24:45;94568.13;;;41.53;23.35
20620;BME280;10469;42.720;23.252;2022-08-19T10:27:11;94558.09;;;42.49;22.25
20620;BME280;10469;42.720;23.252;2022-08-19T10:29:38;94561.53;;;43.17;21.60
20620;BME280;10469;42.720;23.252;2022-08-19T10:32:06;94559.81;;;44.20;21.19
20620;BME280;10469;42.720;23.252;2022-08-19T10:34:32;94552.28;;;43.03;21.82
20620;BME280;10469;42.720;23.252;2022-08-19T10:36:58;94555.44;;;41.32;23.15
20620;BME280;10469;42.720;23.252;2022-08-19T10:39:26;94552.22;;;42.56;21.97
20620;BME280;10469;42.720;23.252;2022-08-19T10:41:55;94543.00;;;42.30;22.26
20620;BME280;10469;42.720;23.252;2022-08-19T10:44:22;94548.03;;;42.09;22.40
20620;BME280;10469;42.720;23.252;2022-08-19T10:46:49;94539.91;;;45.04;19.94
20620;BME280;10469;42.720;23.252;2022-08-19T10:49:14;94546.63;;;41.01;23.18
20620;BME280;10469;42.720;23.252;2022-08-19T10:51:41;94541.72;;;41.64;22.62
20620;BME280;10469;42.720;23.252;2022-08-19T10:54:25;94537.94;;;42.25;22.37
20620;BME280;10469;42.720;23.252;2022-08-19T10:57:09;94541.84;;;39.37;24.69
20620;BME280;10469;42.720;23.252;2022-08-19T10:59:35;94545.13;;;38.88;25.72
20620;BME280;10469;42.720;23.252;2022-08-19T11:02:04;94539.91;;;38.91;25.13
20620;BME280;10469;42.720;23.252;2022-08-19T11:04:29;94535.81;;;39.58;24.49
20620;BME280;10469;42.720;23.252;2022-08-19T11:06:55;94538.94;;;39.21;25.31
20620;BME280;10469;42.720;23.252;2022-08-19T11:09:23;94537.25;;;37.37;27.55
20620;BME280;10469;42.720;23.252;2022-08-19T11:11:56;94525.06;;;38.90;25.84
20620;BME280;10469;42.720;23.252;2022-08-19T11:14:22;94521.47;;;37.58;27.18
20620;BME280;10469;42.720;23.252;2022-08-19T11:16:49;94520.25;;;40.95;24.27
20620;BME280;10469;42.720;23.252;2022-08-19T11:19:16;94516.84;;;41.75;22.96
20620;BME280;10469;42.720;23.252;2022-08-19T11:21:46;94506.56;;;42.48;22.42
20620;BME280;10469;42.720;23.252;2022-08-19T11:24:18;94514.34;;;42.44;22.63
20620;BME280;10469;42.720;23.252;2022-08-19T11:26:45;94517.78;;;38.96;25.06
20620;BME280;10469;42.720;23.252;2022-08-19T11:29:13;94512.31;;;41.06;24.09
20620;BME280;10469;42.720;23.252;2022-08-19T11:31:44;94506.44;;;37.75;26.85
20620;BME280;10469;42.720;23.252;2022-08-19T11:34:14;94496.41;;;39.26;25.93
20620;BME280;10469;42.720;23.252;2022-08-19T11:36:42;94501.50;;;38.13;26.52
20620;BME280;10469;42.720;23.252;2022-08-19T11:39:11;94495.84;;;38.17;27.58
20620;BME280;10469;42.720;23.252;2022-08-19T11:41:37;94492.41;;;38.33;26.54
20620;BME280;10469;42.720;23.252;2022-08-19T11:44:03;94502.94;;;39.59;26.37
20620;BME280;10469;42.720;23.252;2022-08-19T11:46:30;94495.38;;;37.95;27.45
20620;BME280;10469;42.720;23.252;2022-08-19T11:48:57;94495.91;;;38.13;27.04
20620;BME280;10469;42.720;23.252;2022-08-19T11:51:25;94485.59;;;38.34;27.09
20620;BME280;10469;42.720;23.252;2022-08-19T11:53:53;94492.88;;;39.42;25.70
20620;BME280;10469;42.720;23.252;2022-08-19T11:56:19;94484.38;;;38.08;26.70
20620;BME280;10469;42.720;23.252;2022-08-19T12:18:56;94455.84;;;35.45;30.10
20620;BME280;10469;42.720;23.252;2022-08-19T12:21:25;94460.22;;;35.46;30.14
20620;BME280;10469;42.720;23.252;2022-08-19T12:23:55;94455.44;;;35.39;30.58
20620;BME280;10469;42.720;23.252;2022-08-19T12:26:21;94448.06;;;35.04;30.51
20620;BME280;10469;42.720;23.252;2022-08-19T12:28:47;94441.31;;;34.84;31.35
20620;BME280;10469;42.720;23.252;2022-08-19T12:31:14;94445.94;;;35.33;30.31
20620;BME280;10469;42.720;23.252;2022-08-19T12:33:41;94442.00;;;35.24;30.82
20620;BME280;10469;42.720;23.252;2022-08-19T12:36:10;94444.22;;;35.57;30.25
20620;BME280;10469;42.720;23.252;2022-08-19T12:38:37;94447.19;;;35.18;30.36
20620;BME280;10469;42.720;23.252;2022-08-19T12:41:04;94446.06;;;35.01;31.03
20620;BME280;10469;42.720;23.252;2022-08-19T12:43:35;94444.41;;;35.18;30.49
20620;BME280;10469;42.720;23.252;2022-08-19T12:46:02;94438.38;;;35.34;30.27
20620;BME280;10469;42.720;23.252;2022-08-19T12:48:29;94430.03;;;35.27;31.07
20620;BME280;10469;42.720;23.252;2022-08-19T12:50:54;94439.25;;;35.16;31.01
20620;BME280;10469;42.720;23.252;2022-08-19T12:53:20;94425.25;;;35.27;31.06
20620;BME280;10469;42.720;23.252;2022-08-19T12:55:46;94435.38;;;35.69;30.50
20620;BME280;10469;42.720;23.252;2022-08-19T12:58:12;94420.97;;;35.82;30.31
20620;BME280;10469;42.720;23.252;2022-08-19T13:00:38;94416.91;;;35.97;29.77
20620;BME280;10469;42.720;23.252;2022-08-19T13:03:03;94416.97;;;35.79;29.73
20620;BME280;10469;42.720;23.252;2022-08-19T13:05:31;94416.16;;;35.82;30.26
20620;BME280;10469;42.720;23.252;2022-08-19T13:07:58;94412.41;;;35.44;30.45
20620;BME280;10469;42.720;23.252;2022-08-19T13:10:31;94410.09;;;35.32;30.19
20620;BME280;10469;42.720;23.252;2022-08-19T13:13:01;94409.50;;;35.69;30.37
20620;BME280;10469;42.720;23.252;2022-08-19T13:15:27;94398.00;;;35.63;31.72
20620;BME280;10469;42.720;23.252;2022-08-19T13:17:56;94397.16;;;35.66;30.86